Time;durP1;ratioP1;P1;durP2;ratioP2;P2;SDS_P1;SDS_P2;PMS_P1;PMS_P2;Temp;Humidity;BMP_temperature;BMP_pressure;BME280_temperature;BME280_humidity;BME280_pressure;Samples;Min_cycle;Max_cycle;Signal;HPM_P1;HPM_P2
2022/04/13 00:00:09;;;;;;;29.32;17.12;;;;;;;0.99;73.07;94975.38;1707197;84;21031;-50
2022/04/13 00:02:40;;;;;;;30.97;18.55;;;;;;;0.93;73.29;94976.91;1707470;84;21042;-50
2022/04/13 00:05:09;;;;;;;33.40;19.00;;;;;;;0.93;73.82;94974.79;1707029;84;21070;-51
2022/04/13 00:07:37;;;;;;;37.50;20.37;;;;;;;0.95;73.84;94974.59;1707632;84;21109;-51
2022/04/13 00:10:07;;;;;;;57.67;29.77;;;;;;;0.92;73.43;94975.35;1681346;84;21499;-50
2022/04/13 00:12:36;;;;;;;72.97;34.27;;;;;;;0.85;73.49;94982.66;1707590;84;21431;-51
2022/04/13 00:15:06;;;;;;;60.28;30.23;;;;;;;0.80;73.80;94977.62;1707455;84;21451;-50
2022/04/13 00:17:37;;;;;;;48.28;27.17;;;;;;;0.75;73.91;94974.69;1707144;84;21526;-50
2022/04/13 00:20:07;;;;;;;35.48;21.35;;;;;;;0.74;74.08;94977.20;1707387;84;21042;-50
2022/04/13 00:22:33;;;;;;;44.05;23.10;;;;;;;0.68;73.88;94977.37;1728272;82;21205;-50
2022/04/13 00:25:00;;;;;;;51.63;25.82;;;;;;;0.61;73.98;94977.31;1738741;82;21061;-51
2022/04/13 00:27:27;;;;;;;57.03;28.87;;;;;;;0.59;74.03;94980.22;1738859;82;21100;-51
2022/04/13 00:29:54;;;;;;;49.53;25.48;;;;;;;0.53;74.09;94973.58;1739161;82;20961;-50
2022/04/13 00:32:21;;;;;;;54.60;27.32;;;;;;;0.54;74.40;94976.48;1739099;82;21429;-49
2022/04/13 00:34:48;;;;;;;47.45;24.92;;;;;;;0.52;74.36;94980.16;1739072;82;21528;-50
2022/04/13 00:37:14;;;;;;;58.33;30.72;;;;;;;0.53;74.65;94973.02;1738879;82;20969;-50
2022/04/13 00:39:43;;;;;;;28.50;18.73;;;;;;;0.53;74.73;94977.08;1739136;82;21421;-51
2022/04/13 00:42:11;;;;;;;45.52;24.80;;;;;;;0.48;74.64;94972.59;1739069;82;20994;-50
2022/04/13 00:44:40;;;;;;;43.23;22.77;;;;;;;0.43;74.74;94973.72;1739077;82;21020;-50
2022/04/13 00:47:08;;;;;;;40.15;23.07;;;;;;;0.37;74.75;94974.47;1738821;82;21269;-49
2022/04/13 00:49:36;;;;;;;33.08;20.68;;;;;;;0.36;75.07;94974.25;1738874;82;20997;-50
2022/04/13 00:52:05;;;;;;;36.53;18.75;;;;;;;0.31;74.87;94978.10;1738922;82;20969;-50
2022/04/13 00:54:34;;;;;;;36.88;20.00;;;;;;;0.29;74.97;94975.00;1738979;82;21430;-51
2022/04/13 00:57:08;;;;;;;37.20;19.50;;;;;;;0.28;74.86;94966.69;1739112;82;21494;-50
2022/04/13 00:59:39;;;;;;;28.90;18.92;;;;;;;0.28;75.03;94968.60;1738975;82;21804;-49
2022/04/13 01:02:08;;;;;;;34.43;18.45;;;;;;;0.20;74.63;94975.89;1739230;82;21036;-50
2022/04/13 01:04:36;;;;;;;42.90;21.90;;;;;;;0.10;74.82;94972.55;1718913;82;20965;-51
2022/04/13 01:07:07;;;;;;;42.23;21.07;;;;;;;0.08;74.96;94973.47;1709457;84;20978;-50
2022/04/13 01:09:36;;;;;;;35.03;18.00;;;;;;;0.07;75.20;94973.86;1709493;84;20961;-50
2022/04/13 01:12:06;;;;;;;28.83;18.37;;;;;;;0.01;75.04;94974.78;1709710;84;21501;-50
2022/04/13 01:14:34;;;;;;;34.95;18.65;;;;;;;-0.05;75.01;94980.14;1737825;82;20980;-50
2022/04/13 01:17:03;;;;;;;34.38;18.82;;;;;;;-0.10;75.28;94976.41;1737933;81;20952;-49
2022/04/13 01:19:32;;;;;;;28.55;17.73;;;;;;;-0.10;75.46;94974.49;1737584;82;20964;-50
2022/04/13 01:22:19;;;;;;;29.20;18.92;;;;;;;-0.13;75.42;94968.48;1736936;81;21019;-50
2022/04/13 01:24:46;;;;;;;30.37;17.57;;;;;;;-0.15;75.34;94974.05;1737644;82;22174;-50
2022/04/13 01:27:16;;;;;;;27.10;17.32;;;;;;;-0.19;75.41;94978.66;1737592;82;21004;-50
2022/04/13 01:29:44;;;;;;;28.05;17.10;;;;;;;-0.22;75.55;94974.01;1737665;82;20996;-49
2022/04/13 01:32:11;;;;;;;30.35;18.30;;;;;;;-0.22;75.67;94968.60;1737721;81;21039;-50
2022/04/13 01:34:49;;;;;;;78.35;39.38;;;;;;;-0.22;75.87;94973.42;1714859;82;21656;-50
2022/04/13 01:37:16;;;;;;;65.55;32.25;;;;;;;-0.23;75.70;94975.92;1736948;82;21234;-50
2022/04/13 01:39:45;;;;;;;52.73;27.48;;;;;;;-0.26;76.00;94981.31;1737418;82;20952;-50
2022/04/13 01:42:13;;;;;;;53.83;28.83;;;;;;;-0.25;76.20;94974.76;1737506;81;20985;-49
2022/04/13 01:44:41;;;;;;;45.50;26.97;;;;;;;-0.25;76.34;94973.41;1737612;82;20984;-50
2022/04/13 01:47:09;;;;;;;45.98;22.90;;;;;;;-0.26;76.45;94967.80;1737593;82;21012;-51
2022/04/13 01:49:37;;;;;;;48.28;26.17;;;;;;;-0.29;76.61;94968.52;1737118;82;21210;-50
2022/04/13 01:52:05;;;;;;;41.37;22.45;;;;;;;-0.33;76.80;94971.77;1737074;82;21004;-50
2022/04/13 01:54:33;;;;;;;38.40;18.20;;;;;;;-0.35;76.94;94970.02;1737621;82;20964;-50
2022/04/13 01:57:00;;;;;;;57.30;29.77;;;;;;;-0.45;76.70;94976.88;1737660;82;21019;-50
2022/04/13 01:59:28;;;;;;;51.45;29.25;;;;;;;-0.47;77.04;94975.69;1737397;82;21019;-50
2022/04/13 02:01:56;;;;;;;82.57;37.30;;;;;;;-0.47;77.02;94971.63;1737687;81;21023;-50
2022/04/13 02:04:26;;;;;;;80.22;40.23;;;;;;;-0.49;76.88;94972.02;1737433;82;21008;-50
2022/04/13 02:06:54;;;;;;;143.55;58.00;;;;;;;-0.50;77.20;94981.84;1737327;82;20972;-50
2022/04/13 02:09:21;;;;;;;120.13;54.75;;;;;;;-0.47;77.28;94986.49;1737599;81;21444;-49
2022/04/13 02:11:49;;;;;;;121.37;52.98;;;;;;;-0.50;77.26;94984.53;1730770;82;21035;-49
2022/04/13 02:14:17;;;;;;;110.50;52.33;;;;;;;-0.54;77.29;94984.52;1679724;85;21057;-52
2022/04/13 02:16:46;;;;;;;125.50;51.55;;;;;;;-0.55;77.33;94985.64;1728754;82;21020;-50
2022/04/13 02:19:14;;;;;;;118.33;51.65;;;;;;;-0.58;77.37;94981.58;1679885;85;21435;-50
2022/04/13 02:21:41;;;;;;;255.00;98.10;;;;;;;-0.60;77.59;94977.12;1729978;81;20965;-51
2022/04/13 02:24:09;;;;;;;157.22;65.28;;;;;;;-0.60;77.61;94985.22;1679698;85;21067;-51
2022/04/13 02:26:38;;;;;;;124.20;57.53;;;;;;;-0.56;77.80;94976.58;1730054;82;21064;-50
2022/04/13 02:29:04;;;;;;;117.37;52.23;;;;;;;-0.50;77.85;94979.13;1679839;84;21026;-50
2022/04/13 02:31:33;;;;;;;78.28;39.23;;;;;;;-0.44;77.73;94981.72;1730232;82;21000;-50
2022/04/13 02:34:04;;;;;;;66.97;34.60;;;;;;;-0.41;77.37;94979.03;1656642;85;20982;-50
2022/04/13 02:36:33;;;;;;;74.05;37.13;;;;;;;-0.46;76.80;94983.99;1729926;83;21011;-50
2022/04/13 02:39:01;;;;;;;73.37;36.60;;;;;;;-0.54;76.79;94972.92;1656798;85;21008;-50
2022/04/13 02:41:29;;;;;;;164.18;71.40;;;;;;;-0.56;76.92;94981.39;1729944;83;21075;-49
2022/04/13 02:43:56;;;;;;;122.02;57.03;;;;;;;-0.55;76.94;94982.18;1679940;85;21014;-50
2022/04/13 02:46:23;;;;;;;103.97;47.08;;;;;;;-0.63;76.89;94975.92;1730039;83;20960;-51
2022/04/13 02:48:50;;;;;;;112.30;49.88;;;;;;;-0.66;77.02;94978.02;1679754;85;21022;-52
2022/04/13 02:51:16;;;;;;;67.82;34.50;;;;;;;-0.69;77.21;94986.08;1730100;82;21145;-50
2022/04/13 02:53:43;;;;;;;77.32;37.25;;;;;;;-0.73;77.14;94983.92;1679980;85;20971;-50
2022/04/13 02:56:11;;;;;;;84.20;41.50;;;;;;;-0.82;77.02;94983.42;1729994;82;20996;-50
2022/04/13 02:58:38;;;;;;;79.55;40.90;;;;;;;-0.85;77.33;94978.20;1679878;85;21091;-51
2022/04/13 03:01:06;;;;;;;79.60;38.10;;;;;;;-0.85;77.52;94984.95;1730335;81;20948;-52
2022/04/13 03:03:33;;;;;;;84.22;42.15;;;;;;;-0.87;77.40;94983.75;1656901;85;21288;-50
2022/04/13 03:06:02;;;;;;;88.67;44.20;;;;;;;-0.88;77.57;94987.05;1729955;81;20892;-50
2022/04/13 03:08:31;;;;;;;91.85;42.65;;;;;;;-0.82;77.81;94990.17;1679887;85;21030;-50
2022/04/13 03:10:59;;;;;;;83.65;38.63;;;;;;;-0.78;77.71;94989.07;1703873;83;21658;-50
2022/04/13 03:13:26;;;;;;;75.10;35.98;;;;;;;-0.75;77.54;94995.66;1714817;82;21093;-50
2022/04/13 03:15:55;;;;;;;82.42;41.50;;;;;;;-0.81;77.70;94996.56;1715187;82;21543;-50
2022/04/13 03:18:22;;;;;;;76.28;37.23;;;;;;;-0.84;77.55;94988.41;1715581;83;21420;-51
2022/04/13 03:20:51;;;;;;;53.63;27.75;;;;;;;-0.86;77.79;94992.85;1685358;84;21080;-50
2022/04/13 03:23:18;;;;;;;61.20;33.45;;;;;;;-0.84;77.96;94994.61;1718373;83;21007;-51
2022/04/13 03:25:45;;;;;;;90.90;37.60;;;;;;;-0.86;77.83;95000.16;1718545;82;21004;-51
2022/04/13 03:28:13;;;;;;;89.28;40.15;;;;;;;-0.90;77.87;94998.79;1718746;82;20980;-50
2022/04/13 03:30:40;;;;;;;95.50;45.90;;;;;;;-0.96;77.91;95000.83;1685317;84;21088;-50
2022/04/13 03:33:08;;;;;;;88.47;44.73;;;;;;;-1.01;78.00;95007.88;1718786;82;21047;-51
2022/04/13 03:35:35;;;;;;;85.67;43.83;;;;;;;-1.07;78.15;95007.45;1718596;83;20984;-51
2022/04/13 03:38:02;;;;;;;78.75;38.25;;;;;;;-1.06;78.55;95007.66;1718426;83;21063;-51
2022/04/13 03:40:29;;;;;;;167.05;70.90;;;;;;;-1.05;78.37;95005.72;1685134;85;22046;-51
2022/04/13 03:42:56;;;;;;;158.20;69.85;;;;;;;-1.05;78.42;95013.25;1718542;83;21413;-49
2022/04/13 03:45:24;;;;;;;126.82;55.48;;;;;;;-1.04;78.47;95008.62;1718507;82;21000;-50
2022/04/13 03:47:51;;;;;;;91.67;41.33;;;;;;;-1.03;78.15;95016.36;1718714;83;21019;-51
2022/04/13 03:50:18;;;;;;;58.10;33.38;;;;;;;-1.06;78.25;95012.26;1718307;82;21054;-51
2022/04/13 03:52:47;;;;;;;69.72;34.53;;;;;;;-1.04;77.90;95016.72;1685496;84;21000;-50
2022/04/13 03:55:16;;;;;;;55.28;29.27;;;;;;;-1.06;78.02;95013.05;1718606;82;20944;-50
2022/04/13 03:57:44;;;;;;;65.22;33.65;;;;;;;-1.01;78.04;95014.63;1718229;82;21004;-52
2022/04/13 04:00:13;;;;;;;61.92;33.35;;;;;;;-0.97;78.02;95012.19;1717891;82;20991;-52
2022/04/13 04:02:41;;;;;;;99.52;46.25;;;;;;;-0.97;77.78;95019.52;1733188;82;21063;-55
2022/04/13 04:05:08;;;;;;;103.40;50.35;;;;;;;-0.94;77.76;95022.83;1707668;82;21130;-52
2022/04/13 04:07:38;;;;;;;93.80;46.55;;;;;;;-0.96;77.88;95015.67;1697320;84;21324;-52
2022/04/13 04:10:08;;;;;;;105.20;48.65;;;;;;;-0.93;77.93;95025.73;1697002;84;21015;-53
2022/04/13 04:12:40;;;;;;;101.33;45.63;;;;;;;-0.88;78.10;95025.41;1705775;83;20994;-51
2022/04/13 04:15:09;;;;;;;122.07;57.33;;;;;;;-0.79;78.31;95027.27;1691687;84;21105;-53
2022/04/13 04:17:37;;;;;;;137.62;56.25;;;;;;;-0.69;78.02;95025.24;1722801;83;21037;-53
2022/04/13 04:20:06;;;;;;;109.72;54.05;;;;;;;-0.65;78.20;95026.05;1692636;84;21052;-55
2022/04/13 04:22:35;;;;;;;88.45;47.10;;;;;;;-0.58;77.89;95025.56;1723596;83;21038;-52
2022/04/13 04:25:05;;;;;;;117.72;48.80;;;;;;;-0.57;77.53;95027.11;1650963;84;21476;-51
2022/04/13 04:27:32;;;;;;;73.52;37.45;;;;;;;-0.51;77.67;95030.27;1651910;86;20977;-51
2022/04/13 04:30:01;;;;;;;86.37;42.50;;;;;;;-0.38;77.89;95031.57;1642338;87;21168;-52
2022/04/13 04:32:28;;;;;;;79.27;45.50;;;;;;;-0.27;77.75;95028.38;1652109;86;21076;-52
2022/04/13 04:34:55;;;;;;;75.62;44.80;;;;;;;-0.09;78.20;95032.03;1642373;87;21040;-51
2022/04/13 04:37:24;;;;;;;82.27;46.13;;;;;;;0.31;78.13;95032.77;1652069;86;21065;-52
2022/04/13 04:39:51;;;;;;;73.80;42.25;;;;;;;1.05;78.47;95034.81;1641930;87;21148;-50
2022/04/13 04:42:17;;;;;;;93.42;41.80;;;;;;;2.01;76.85;95024.67;1651643;86;21176;-52
2022/04/13 04:44:46;;;;;;;81.12;44.98;;;;;;;2.36;74.55;95023.31;1641934;86;21582;-55
2022/04/13 04:47:14;;;;;;;92.72;45.35;;;;;;;2.37;73.60;95020.82;1652359;86;21047;-57
2022/04/13 04:49:43;;;;;;;109.85;45.28;;;;;;;2.25;72.40;95023.13;1641844;87;21027;-52
2022/04/13 04:52:10;;;;;;;96.65;39.45;;;;;;;2.11;71.88;95026.61;1651914;86;21032;-52
2022/04/13 04:54:37;;;;;;;67.55;35.95;;;;;;;1.99;71.88;95030.28;1621510;87;22102;-50
2022/04/13 04:57:04;;;;;;;74.03;41.15;;;;;;;1.89;72.04;95030.45;1651682;86;20993;-51
2022/04/13 04:59:30;;;;;;;102.00;45.80;;;;;;;1.87;72.01;95031.42;1641585;87;20995;-51
2022/04/13 05:01:57;;;;;;;85.95;48.95;;;;;;;1.90;72.45;95033.93;1651282;86;21048;-51
2022/04/13 05:04:24;;;;;;;127.45;49.23;;;;;;;1.96;72.12;95021.56;1657319;86;21091;-51
2022/04/13 05:06:51;;;;;;;79.97;44.88;;;;;;;1.93;71.80;95014.96;1673181;85;21122;-51
2022/04/13 05:09:20;;;;;;;87.90;47.65;;;;;;;1.91;71.73;95019.20;1674626;85;21507;-53
2022/04/13 05:11:49;;;;;;;98.42;54.27;;;;;;;1.87;71.65;95025.21;1661695;84;21119;-52
2022/04/13 05:14:18;;;;;;;85.80;51.15;;;;;;;1.89;72.18;95021.53;1702306;84;21070;-51
2022/04/13 05:16:47;;;;;;;86.57;47.00;;;;;;;1.96;72.06;95014.78;1703073;84;20953;-50
2022/04/13 05:19:15;;;;;;;113.35;62.03;;;;;;;1.95;71.68;95014.59;1702486;84;21198;-50
2022/04/13 05:21:42;;;;;;;101.42;51.25;;;;;;;1.96;72.21;95021.56;1702406;84;20971;-52
2022/04/13 05:24:12;;;;;;;100.10;51.25;;;;;;;2.09;72.31;95024.08;1702664;84;21078;-50
2022/04/13 05:26:40;;;;;;;103.38;52.35;;;;;;;2.21;71.59;95025.06;1702922;84;21016;-50
2022/04/13 05:29:07;;;;;;;109.48;52.33;;;;;;;2.21;71.28;95022.35;1701970;84;21062;-52
2022/04/13 05:31:33;;;;;;;110.37;56.08;;;;;;;2.29;71.46;95023.92;1704914;82;21205;-50
2022/04/13 05:34:01;;;;;;;114.32;58.23;;;;;;;2.45;71.47;95029.71;1713065;82;21055;-54
2022/04/13 05:36:28;;;;;;;105.75;54.13;;;;;;;2.59;71.13;95020.20;1700700;84;21053;-51
2022/04/13 05:38:56;;;;;;;97.88;54.45;;;;;;;2.76;70.62;95022.13;1706607;83;21407;-50
2022/04/13 05:41:22;;;;;;;121.75;59.33;;;;;;;2.91;70.37;95023.06;1698007;82;21122;-51
2022/04/13 05:43:49;;;;;;;123.15;55.90;;;;;;;3.05;70.05;95026.35;1700233;84;21139;-54
2022/04/13 05:46:16;;;;;;;80.75;45.85;;;;;;;3.19;69.82;95031.73;1690106;84;21433;-50
2022/04/13 05:48:43;;;;;;;79.03;44.67;;;;;;;3.27;69.46;95027.23;1698092;83;21057;-53
2022/04/13 05:51:09;;;;;;;72.95;40.15;;;;;;;3.36;69.06;95024.09;1689126;83;21061;-50
2022/04/13 05:53:37;;;;;;;93.85;48.95;;;;;;;3.39;68.77;95028.78;1699174;82;21015;-53
2022/04/13 05:56:05;;;;;;;74.75;41.37;;;;;;;3.47;68.88;95035.72;1692944;82;21235;-52
2022/04/13 05:58:32;;;;;;;67.05;39.75;;;;;;;3.57;68.51;95030.23;1703643;82;21082;-54
2022/04/13 06:00:59;;;;;;;74.58;41.55;;;;;;;3.63;68.03;95039.52;1706290;82;21073;-53
2022/04/13 06:03:25;;;;;;;73.22;40.05;;;;;;;3.65;67.70;95035.25;1681733;83;21428;-52
2022/04/13 06:05:53;;;;;;;52.62;32.30;;;;;;;3.78;67.71;95035.00;1712302;82;21135;-52
2022/04/13 06:08:19;;;;;;;79.75;37.25;;;;;;;3.87;67.02;95035.93;1710906;82;21485;-58
2022/04/13 06:10:48;;;;;;;74.85;40.48;;;;;;;3.92;66.61;95036.30;1708046;82;21012;-55
2022/04/13 06:13:15;;;;;;;70.17;33.08;;;;;;;4.01;66.73;95033.11;1676960;83;22112;-54
2022/04/13 06:15:44;;;;;;;49.48;31.35;;;;;;;4.20;66.67;95033.98;1678342;84;21072;-53
2022/04/13 06:18:12;;;;;;;52.38;30.27;;;;;;;4.35;65.87;95032.11;1703583;83;21101;-53
2022/04/13 06:20:38;;;;;;;49.73;31.23;;;;;;;4.48;65.26;95040.58;1701015;83;21138;-54
2022/04/13 06:23:06;;;;;;;43.70;27.42;;;;;;;4.51;64.76;95041.13;1697004;82;21059;-52
2022/04/13 06:25:33;;;;;;;48.35;27.82;;;;;;;4.54;64.49;95042.47;1708509;83;21014;-52
2022/04/13 06:28:00;;;;;;;46.15;24.90;;;;;;;4.64;64.33;95038.87;1679098;84;21041;-50
2022/04/13 06:30:27;;;;;;;45.63;25.43;;;;;;;4.77;64.03;95037.82;1694469;84;21113;-53
2022/04/13 06:32:55;;;;;;;50.78;28.87;;;;;;;4.78;63.41;95032.55;1668716;84;21381;-50
2022/04/13 06:35:23;;;;;;;42.10;26.07;;;;;;;4.76;63.36;95045.20;1670986;84;21097;-54
2022/04/13 06:37:49;;;;;;;52.03;28.85;;;;;;;4.83;63.74;95038.31;1668543;84;21019;-52
2022/04/13 06:40:18;;;;;;;48.38;22.75;;;;;;;4.92;63.28;95034.55;1671747;84;21058;-54
2022/04/13 06:42:48;;;;;;;40.08;23.52;;;;;;;4.98;62.51;95023.98;1674288;83;21163;-51
2022/04/13 06:45:15;;;;;;;59.53;31.40;;;;;;;5.04;62.17;95032.69;1701484;82;22794;-55
2022/04/13 06:47:42;;;;;;;63.05;36.73;;;;;;;5.14;62.30;95027.70;1673721;83;21129;-54
2022/04/13 06:50:10;;;;;;;55.23;31.17;;;;;;;5.29;62.56;95035.35;1696359;83;21099;-54
2022/04/13 06:52:38;;;;;;;76.28;30.23;;;;;;;5.50;62.08;95028.86;1693087;83;21069;-53
2022/04/13 06:55:09;;;;;;;44.48;24.15;;;;;;;5.66;61.91;95016.78;1700437;83;21065;-51
2022/04/13 06:57:38;;;;;;;47.73;23.35;;;;;;;5.89;61.77;95014.17;1694273;83;21302;-51
2022/04/13 07:00:11;;;;;;;19.75;12.50;;;;;;;6.19;60.24;95016.87;1698074;83;21140;-55
2022/04/13 07:02:39;;;;;;;24.82;13.83;;;;;;;6.49;56.93;95012.73;1676540;83;21720;-55
2022/04/13 07:05:07;;;;;;;22.40;11.73;;;;;;;6.74;56.54;95019.92;1703172;82;21058;-59
2022/04/13 07:07:36;;;;;;;30.08;15.38;;;;;;;6.97;55.64;95015.81;1680678;84;21063;-55
2022/04/13 07:10:06;;;;;;;25.02;14.20;;;;;;;7.13;55.58;95012.61;1698506;83;21053;-53
2022/04/13 07:12:37;;;;;;;26.12;11.73;;;;;;;7.24;54.49;95016.69;1705728;82;21068;-52
2022/04/13 07:15:06;;;;;;;28.05;10.10;;;;;;;7.37;53.51;95018.21;1683607;82;21119;-54
2022/04/13 07:17:35;;;;;;;17.75;10.28;;;;;;;7.54;52.29;95015.13;1709014;82;21088;-54
2022/04/13 07:20:05;;;;;;;19.15;9.60;;;;;;;7.79;52.48;95007.78;1700527;83;21022;-53
2022/04/13 07:22:45;;;;;;;37.75;10.45;;;;;;;8.14;52.28;95007.82;1707311;82;21053;-52
2022/04/13 07:25:13;;;;;;;27.58;9.63;;;;;;;8.42;51.13;95007.81;1717353;82;21052;-55
2022/04/13 07:27:44;;;;;;;17.42;7.15;;;;;;;8.50;49.68;95014.08;1708272;82;21010;-52
2022/04/13 07:30:15;;;;;;;33.33;8.63;;;;;;;8.55;48.70;95014.93;1702017;82;20980;-54
2022/04/13 07:32:46;;;;;;;17.15;7.58;;;;;;;8.59;48.13;95010.13;1704431;82;21529;-54
2022/04/13 07:35:14;;;;;;;8.95;6.30;;;;;;;8.63;47.61;95015.54;1705377;82;21159;-54
2022/04/13 07:37:42;;;;;;;16.40;8.53;;;;;;;8.67;47.79;95007.41;1700569;82;21736;-54
2022/04/13 07:40:11;;;;;;;8.70;4.65;;;;;;;8.81;47.62;95010.41;1716833;82;21105;-54
2022/04/13 07:42:38;;;;;;;9.30;5.90;;;;;;;8.82;44.02;95014.07;1708192;82;21013;-52
2022/04/13 07:45:06;;;;;;;14.98;5.15;;;;;;;8.77;45.21;95019.33;1708776;82;21084;-55
2022/04/13 07:47:33;;;;;;;6.03;4.33;;;;;;;8.76;45.02;95024.02;1715406;82;21198;-55
2022/04/13 07:50:00;;;;;;;9.08;5.00;;;;;;;8.72;44.32;95017.86;1706506;82;21082;-53
2022/04/13 07:52:27;;;;;;;13.48;7.15;;;;;;;8.73;45.06;95019.40;1709880;82;21926;-55
2022/04/13 07:54:54;;;;;;;13.48;7.67;;;;;;;8.81;45.30;95011.16;1705590;82;21034;-54
2022/04/13 07:57:21;;;;;;;14.33;10.85;;;;;;;8.84;44.51;95015.78;1697280;83;21125;-53
2022/04/13 07:59:48;;;;;;;17.60;8.60;;;;;;;8.84;44.94;95023.26;1711675;82;21136;-56
2022/04/13 08:02:21;;;;;;;12.93;7.35;;;;;;;8.88;45.49;95028.84;1682626;83;20993;-53
2022/04/13 08:04:49;;;;;;;9.93;6.00;;;;;;;8.96;45.84;95026.08;1713514;82;21613;-54
2022/04/13 08:07:17;;;;;;;25.60;6.67;;;;;;;9.16;45.49;95018.51;1698587;82;21228;-51
2022/04/13 08:09:44;;;;;;;8.30;4.87;;;;;;;9.28;44.55;95020.56;1697271;83;21026;-55
2022/04/13 08:12:11;;;;;;;10.43;5.62;;;;;;;9.37;44.01;95017.95;1702312;82;21244;-53
2022/04/13 08:14:38;;;;;;;6.30;5.40;;;;;;;9.49;45.49;95023.52;1681502;83;21039;-53
2022/04/13 08:17:07;;;;;;;10.28;5.33;;;;;;;9.61;43.83;95013.17;1684847;82;21470;-54
2022/04/13 08:19:34;;;;;;;9.75;5.28;;;;;;;9.68;43.20;95014.95;1696244;82;21065;-53
2022/04/13 08:22:04;;;;;;;9.60;5.30;;;;;;;9.75;42.97;95012.78;1681026;83;21780;-52
2022/04/13 08:24:32;;;;;;;18.52;6.20;;;;;;;9.81;43.07;95017.91;1683841;83;21539;-54
2022/04/13 08:27:00;;;;;;;12.23;5.60;;;;;;;9.89;43.27;95017.11;1686368;83;21035;-56
2022/04/13 08:29:27;;;;;;;10.88;5.83;;;;;;;10.04;43.12;95007.28;1692233;83;21080;-55
2022/04/13 08:31:54;;;;;;;5.83;3.45;;;;;;;10.21;43.62;95016.98;1690705;83;21080;-54
2022/04/13 08:34:21;;;;;;;7.33;3.10;;;;;;;10.44;40.52;95002.92;1681547;83;21104;-55
2022/04/13 08:36:48;;;;;;;15.35;4.00;;;;;;;10.62;39.63;94998.42;1703564;82;21558;-55
2022/04/13 08:39:16;;;;;;;10.53;5.15;;;;;;;10.70;40.26;94996.22;1709789;82;21371;-53
2022/04/13 08:41:58;;;;;;;8.88;4.30;;;;;;;10.85;39.99;94990.59;1694376;83;20987;-56
2022/04/13 08:44:42;;;;;;;12.95;4.08;;;;;;;11.02;39.35;94994.73;1711881;82;20999;-55
2022/04/13 08:47:15;;;;;;;8.35;5.08;;;;;;;11.19;38.72;94990.61;1692511;83;20928;-53
2022/04/13 08:49:45;;;;;;;18.12;4.95;;;;;;;11.28;36.66;94987.96;1693353;83;21791;-56
2022/04/13 08:52:14;;;;;;;14.03;5.00;;;;;;;11.37;38.88;94990.02;1698335;83;21116;-54
2022/04/13 08:55:06;;;;;;;7.62;3.65;;;;;;;11.44;38.74;94986.42;1716614;82;21086;-55
2022/04/13 08:57:41;;;;;;;8.43;3.58;;;;;;;11.49;39.31;94992.73;1709116;82;21023;-56
2022/04/13 09:00:13;;;;;;;13.38;4.08;;;;;;;11.50;38.64;94976.98;1712724;82;21040;-55
2022/04/13 09:02:59;;;;;;;7.95;3.22;;;;;;;11.56;37.39;94974.59;1680600;83;21133;-54
2022/04/13 09:05:32;;;;;;;8.33;4.08;;;;;;;11.65;34.87;94978.03;1707162;82;21090;-53
2022/04/13 09:08:19;;;;;;;10.25;3.47;;;;;;;11.70;36.48;94969.20;1686058;83;21037;-52
2022/04/13 09:10:47;;;;;;;5.42;3.60;;;;;;;11.74;35.75;94973.34;1686729;83;21059;-53
2022/04/13 09:13:16;;;;;;;4.55;3.58;;;;;;;11.71;34.95;94959.09;1692297;83;21064;-54
2022/04/13 09:15:43;;;;;;;14.30;4.03;;;;;;;11.64;35.17;94956.60;1695072;83;21097;-54
2022/04/13 09:18:11;;;;;;;7.78;4.40;;;;;;;11.67;35.25;94959.84;1705664;83;21099;-52
2022/04/13 09:20:39;;;;;;;8.50;3.80;;;;;;;11.65;35.50;94956.77;1681041;83;21036;-51
2022/04/13 09:23:06;;;;;;;7.20;3.35;;;;;;;11.71;35.05;94964.61;1696921;83;21074;-51
2022/04/13 09:25:36;;;;;;;7.75;3.75;;;;;;;11.80;36.29;94960.55;1693381;83;22443;-54
2022/04/13 09:28:05;;;;;;;5.22;3.00;;;;;;;11.89;35.14;94949.56;1705691;83;21156;-53
2022/04/13 09:30:33;;;;;;;10.23;4.00;;;;;;;12.05;36.78;94949.36;1704358;83;21072;-53
2022/04/13 09:33:02;;;;;;;7.15;3.17;;;;;;;12.18;35.72;94939.02;1680053;84;21023;-53
2022/04/13 09:35:34;;;;;;;11.85;4.00;;;;;;;12.30;35.66;94946.41;1713352;82;21076;-59
2022/04/13 09:38:04;;;;;;;9.03;4.58;;;;;;;12.43;35.52;94947.72;1708929;82;21008;-56
2022/04/13 09:40:39;;;;;;;7.67;3.47;;;;;;;12.57;36.03;94967.23;1697485;83;21048;-54
2022/04/13 09:43:13;;;;;;;11.73;2.90;;;;;;;12.77;32.87;94943.55;1704333;83;21040;-52
2022/04/13 09:45:51;;;;;;;10.18;3.27;;;;;;;12.93;32.28;94932.86;1695386;83;21036;-53
2022/04/13 09:48:21;;;;;;;5.95;3.42;;;;;;;13.05;34.08;94934.73;1709334;83;21090;-59
2022/04/13 09:50:51;;;;;;;7.05;3.15;;;;;;;13.19;33.98;94925.83;1700195;82;21068;-57
2022/04/13 09:53:20;;;;;;;9.50;3.67;;;;;;;13.33;32.71;94925.23;1680817;84;21161;-57
2022/04/13 09:55:55;;;;;;;24.70;4.47;;;;;;;13.49;34.03;94920.16;1713340;82;21056;-58
2022/04/13 09:58:29;;;;;;;7.28;2.98;;;;;;;13.72;30.37;94938.12;1712703;82;21087;-56
2022/04/13 10:01:00;;;;;;;5.87;3.27;;;;;;;13.89;30.26;94947.63;1712758;82;21187;-53
2022/04/13 10:03:25;;;;;;;9.60;3.75;;;;;;;14.04;30.15;94942.39;1705493;82;21116;-54
2022/04/13 10:05:54;;;;;;;17.32;4.45;;;;;;;14.12;31.17;94944.97;1711464;82;21160;-56
2022/04/13 10:08:25;;;;;;;17.75;3.55;;;;;;;14.32;31.37;94936.20;1723011;82;21064;-55
2022/04/13 10:10:58;;;;;;;9.55;3.00;;;;;;;14.39;30.97;94925.54;1725641;82;21053;-53
2022/04/13 10:13:38;;;;;;;7.17;3.10;;;;;;;14.48;32.35;94917.97;1719662;82;21023;-51
2022/04/13 10:16:09;;;;;;;12.85;3.55;;;;;;;14.70;32.39;94923.27;1694255;83;21070;-55
2022/04/13 10:18:59;;;;;;;6.15;3.50;;;;;;;14.92;31.37;94938.39;1705487;83;21073;-53
2022/04/13 10:21:40;;;;;;;6.03;3.15;;;;;;;15.01;30.22;94935.55;1693932;83;21032;-53
2022/04/13 10:24:28;;;;;;;12.03;3.75;;;;;;;15.28;29.32;94915.98;1687229;83;21015;-54
2022/04/13 10:27:15;;;;;;;4.62;3.22;;;;;;;15.62;29.81;94932.69;1670861;84;21056;-55
2022/04/13 10:29:45;;;;;;;8.10;3.42;;;;;;;15.97;29.56;94934.39;1673689;84;21025;-56
2022/04/13 10:32:15;;;;;;;8.95;3.85;;;;;;;16.41;27.13;94935.19;1674931;84;22120;-54
2022/04/13 10:34:47;;;;;;;7.53;3.72;;;;;;;16.79;27.31;94940.59;1689242;83;21230;-54
2022/04/13 10:37:18;;;;;;;8.40;3.00;;;;;;;17.08;27.13;94934.97;1690259;83;21042;-55
2022/04/13 10:39:46;;;;;;;7.00;3.05;;;;;;;17.36;26.49;94935.52;1688155;83;21537;-55
2022/04/13 10:42:19;;;;;;;6.97;2.80;;;;;;;17.61;26.54;94931.28;1690051;83;21090;-56
2022/04/13 10:44:57;;;;;;;6.72;2.83;;;;;;;17.90;26.69;94938.05;1669615;84;21253;-54
2022/04/13 10:47:37;;;;;;;6.35;2.55;;;;;;;18.22;27.04;94928.66;1689470;83;21079;-56
2022/04/13 10:50:07;;;;;;;7.78;3.62;;;;;;;18.40;26.09;94916.42;1690055;83;21085;-54
2022/04/13 10:52:54;;;;;;;8.15;2.40;;;;;;;18.53;25.82;94939.87;1668674;83;21180;-53
2022/04/13 10:55:21;;;;;;;4.10;2.12;;;;;;;18.76;24.90;94930.42;1669183;83;21210;-57
2022/04/13 10:57:53;;;;;;;5.90;2.20;;;;;;;18.96;24.40;94922.56;1692026;83;22124;-54
2022/04/13 11:00:21;;;;;;;3.83;1.60;;;;;;;19.16;24.23;94933.00;1696563;83;21081;-54
2022/04/13 11:02:54;;;;;;;4.90;2.08;;;;;;;19.25;23.76;94932.83;1695375;83;21093;-57
2022/04/13 11:05:27;;;;;;;9.88;2.92;;;;;;;19.38;23.06;94937.96;1706132;83;21042;-55
2022/04/13 11:08:35;;;;;;;4.55;2.47;;;;;;;19.61;23.60;94934.78;1692935;82;21053;-55
2022/04/13 11:11:03;;;;;;;2.70;1.95;;;;;;;19.90;21.80;94934.38;1628564;84;22294;-55
2022/04/13 11:13:34;;;;;;;9.40;3.37;;;;;;;19.89;21.58;94924.47;1703134;81;21103;-53
2022/04/13 11:16:20;;;;;;;5.53;2.35;;;;;;;20.01;22.91;94921.85;1684635;83;21531;-58
2022/04/13 11:19:11;;;;;;;7.33;2.60;;;;;;;20.33;22.46;94912.80;1695540;83;21077;-54
2022/04/13 11:21:56;;;;;;;7.53;2.20;;;;;;;20.36;22.40;94906.19;1711176;82;21127;-54
2022/04/13 11:24:56;;;;;;;8.20;1.95;;;;;;;20.51;23.14;94910.13;1705905;82;21559;-57
2022/04/13 11:27:24;;;;;;;12.95;2.37;;;;;;;20.91;22.25;94908.27;1680112;82;21068;-56
2022/04/13 11:30:01;;;;;;;9.40;1.75;;;;;;;21.15;21.48;94917.63;1711938;82;21019;-55
2022/04/13 11:32:33;;;;;;;4.72;2.15;;;;;;;21.17;20.92;94916.50;1716840;82;21119;-55
2022/04/13 11:35:02;;;;;;;;;;;;;;;21.22;21.45;94926.14;1716216;82;22090;-56